sensor_id;sensor_type;location;lat;lon;timestamp;pressure;altitude;pressure_sealevel;temperature;humidity
13080;BME280;6606;49.154;9.280;2024-01-16T00:01:03;99118.75;;;-1.54;100.00
13080;BME280;6606;49.154;9.280;2024-01-16T00:03:45;99118.66;;;-1.49;100.00
13080;BME280;6606;49.154;9.280;2024-01-16T00:06:28;99114.28;;;-1.47;100.00
13080;BME280;6606;49.154;9.280;2024-01-16T00:09:10;99107.25;;;-1.42;100.00
13080;BME280;6606;49.154;9.280;2024-01-16T00:11:51;99111.84;;;-1.56;100.00
13080;BME280;6606;49.154;9.280;2024-01-16T00:14:35;99120.50;;;-1.57;100.00
13080;BME280;6606;49.154;9.280;2024-01-16T00:17:17;99110.16;;;-1.60;100.00
13080;BME280;6606;49.154;9.280;2024-01-16T00:19:58;99115.34;;;-1.60;100.00
13080;BME280;6606;49.154;9.280;2024-01-16T00:22:42;99112.75;;;-1.59;100.00
13080;BME280;6606;49.154;9.280;2024-01-16T00:25:24;99116.31;;;-1.67;100.00
13080;BME280;6606;49.154;9.280;2024-01-16T00:28:06;99119.06;;;-1.77;100.00
13080;BME280;6606;49.154;9.280;2024-01-16T00:30:47;99107.03;;;-1.84;100.00
13080;BME280;6606;49.154;9.280;2024-01-16T00:33:29;99110.59;;;-1.91;100.00
13080;BME280;6606;49.154;9.280;2024-01-16T00:36:11;99121.09;;;-1.97;100.00
13080;BME280;6606;49.154;9.280;2024-01-16T00:38:54;99112.59;;;-2.08;100.00
13080;BME280;6606;49.154;9.280;2024-01-16T00:41:36;99116.06;;;-2.09;100.00
13080;BME280;6606;49.154;9.280;2024-01-16T00:44:17;99116.13;;;-2.15;100.00
13080;BME280;6606;49.154;9.280;2024-01-16T00:46:59;99110.13;;;-2.21;100.00
13080;BME280;6606;49.154;9.280;2024-01-16T00:49:42;99106.69;;;-2.21;100.00
13080;BME280;6606;49.154;9.280;2024-01-16T00:52:23;99109.34;;;-2.26;100.00
13080;BME280;6606;49.154;9.280;2024-01-16T00:55:07;99103.31;;;-2.28;100.00
13080;BME280;6606;49.154;9.280;2024-01-16T00:57:49;99105.78;;;-2.19;100.00
13080;BME280;6606;49.154;9.280;2024-01-16T01:00:30;99106.72;;;-2.24;100.00
13080;BME280;6606;49.154;9.280;2024-01-16T01:03:14;99101.72;;;-2.38;100.00
13080;BME280;6606;49.154;9.280;2024-01-16T01:05:56;99107.75;;;-2.39;100.00
13080;BME280;6606;49.154;9.280;2024-01-16T01:08:38;99107.91;;;-2.48;100.00
13080;BME280;6606;49.154;9.280;2024-01-16T01:11:21;99109.59;;;-2.47;100.00
13080;BME280;6606;49.154;9.280;2024-01-16T01:14:03;99117.34;;;-2.43;100.00
13080;BME280;6606;49.154;9.280;2024-01-16T01:16:44;99122.53;;;-2.41;100.00
13080;BME280;6606;49.154;9.280;2024-01-16T01:19:26;99130.44;;;-2.50;100.00
13080;BME280;6606;49.154;9.280;2024-01-16T01:22:08;99128.78;;;-2.56;100.00
13080;BME280;6606;49.154;9.280;2024-01-16T01:24:49;99140.91;;;-2.56;100.00
13080;BME280;6606;49.154;9.280;2024-01-16T01:27:32;99133.97;;;-2.57;100.00
13080;BME280;6606;49.154;9.280;2024-01-16T01:30:14;99137.47;;;-2.58;100.00
13080;BME280;6606;49.154;9.280;2024-01-16T01:32:56;99142.72;;;-2.61;100.00
13080;BME280;6606;49.154;9.280;2024-01-16T01:35:37;99147.94;;;-2.68;100.00
13080;BME280;6606;49.154;9.280;2024-01-16T01:38:19;99156.63;;;-2.67;100.00
13080;BME280;6606;49.154;9.280;2024-01-16T01:41:01;99156.56;;;-2.59;100.00
13080;BME280;6606;49.154;9.280;2024-01-16T01:43:44;99165.13;;;-2.51;100.00
13080;BME280;6606;49.154;9.280;2024-01-16T01:46:26;99169.34;;;-2.43;100.00
13080;BME280;6606;49.154;9.280;2024-01-16T01:49:08;99171.94;;;-2.43;100.00
13080;BME280;6606;49.154;9.280;2024-01-16T01:51:50;99178.06;;;-2.47;100.00
13080;BME280;6606;49.154;9.280;2024-01-16T01:54:33;99172.00;;;-2.47;100.00
13080;BME280;6606;49.154;9.280;2024-01-16T01:57:15;99167.66;;;-2.44;100.00
13080;BME280;6606;49.154;9.280;2024-01-16T01:59:59;99163.31;;;-2.43;100.00
13080;BME280;6606;49.154;9.280;2024-01-16T02:02:42;99177.13;;;-2.38;100.00
13080;BME280;6606;49.154;9.280;2024-01-16T02:05:23;99180.66;;;-2.45;100.00
13080;BME280;6606;49.154;9.280;2024-01-16T02:08:06;99174.56;;;-2.44;100.00
13080;BME280;6606;49.154;9.280;2024-01-16T02:10:49;99175.34;;;-2.36;100.00
13080;BME280;6606;49.154;9.280;2024-01-16T02:13:31;99171.78;;;-2.29;100.00
13080;BME280;6606;49.154;9.280;2024-01-16T02:16:22;99181.25;;;-2.23;100.00
13080;BME280;6606;49.154;9.280;2024-01-16T02:19:04;99168.16;;;-2.15;100.00
13080;BME280;6606;49.154;9.280;2024-01-16T02:21:47;99169.81;;;-2.08;100.00
13080;BME280;6606;49.154;9.280;2024-01-16T02:24:31;99169.88;;;-2.11;100.00
13080;BME280;6606;49.154;9.280;2024-01-16T02:27:12;99172.38;;;-2.04;100.00
13080;BME280;6606;49.154;9.280;2024-01-16T02:29:54;99170.53;;;-1.97;100.00
13080;BME280;6606;49.154;9.280;2024-01-16T02:32:36;99178.34;;;-1.97;100.00
13080;BME280;6606;49.154;9.280;2024-01-16T02:35:18;99174.81;;;-1.93;100.00
13080;BME280;6606;49.154;9.280;2024-01-16T02:38:00;99174.75;;;-1.87;100.00
13080;BME280;6606;49.154;9.280;2024-01-16T02:40:43;99167.72;;;-1.82;100.00
13080;BME280;6606;49.154;9.280;2024-01-16T02:43:24;99164.22;;;-1.78;100.00
13080;BME280;6606;49.154;9.280;2024-01-16T02:46:07;99158.06;;;-1.75;100.00
13080;BME280;6606;49.154;9.280;2024-01-16T02:48:49;99167.56;;;-1.69;100.00
13080;BME280;6606;49.154;9.280;2024-01-16T02:51:31;99179.03;;;-1.83;100.00
13080;BME280;6606;49.154;9.280;2024-01-16T02:54:13;99188.34;;;-1.66;100.00
13080;BME280;6606;49.154;9.280;2024-01-16T02:56:56;99183.16;;;-1.66;100.00
13080;BME280;6606;49.154;9.280;2024-01-16T02:59:38;99178.72;;;-1.61;100.00
13080;BME280;6606;49.154;9.280;2024-01-16T03:02:19;99177.88;;;-1.63;100.00
13080;BME280;6606;49.154;9.280;2024-01-16T03:05:02;99179.75;;;-1.71;100.00
13080;BME280;6606;49.154;9.280;2024-01-16T03:07:45;99181.41;;;-1.67;100.00
13080;BME280;6606;49.154;9.280;2024-01-16T03:10:27;99177.97;;;-1.69;100.00
13080;BME280;6606;49.154;9.280;2024-01-16T03:13:10;99179.66;;;-1.65;100.00
13080;BME280;6606;49.154;9.280;2024-01-16T03:15:52;99185.66;;;-1.60;100.00
13080;BME280;6606;49.154;9.280;2024-01-16T03:18:34;99182.94;;;-1.54;100.00
13080;BME280;6606;49.154;9.280;2024-01-16T03:21:16;99186.59;;;-1.67;100.00
13080;BME280;6606;49.154;9.280;2024-01-16T03:23:58;99177.94;;;-1.66;100.00
13080;BME280;6606;49.154;9.280;2024-01-16T03:26:40;99182.94;;;-1.51;100.00
13080;BME280;6606;49.154;9.280;2024-01-16T03:29:24;99184.81;;;-1.62;100.00
13080;BME280;6606;49.154;9.280;2024-01-16T03:32:06;99188.03;;;-1.46;100.00
13080;BME280;6606;49.154;9.280;2024-01-16T03:34:47;99190.81;;;-1.57;100.00
13080;BME280;6606;49.154;9.280;2024-01-16T03:37:29;99193.19;;;-1.42;100.00
13080;BME280;6606;49.154;9.280;2024-01-16T03:40:11;99179.38;;;-1.47;100.00
13080;BME280;6606;49.154;9.280;2024-01-16T03:42:53;99182.94;;;-1.51;100.00
13080;BME280;6606;49.154;9.280;2024-01-16T03:45:36;99182.88;;;-1.49;100.00
13080;BME280;6606;49.154;9.280;2024-01-16T03:48:18;99181.13;;;-1.49;100.00
13080;BME280;6606;49.154;9.280;2024-01-16T03:51:00;99181.03;;;-1.40;100.00
13080;BME280;6606;49.154;9.280;2024-01-16T03:53:42;99177.75;;;-1.54;100.00
13080;BME280;6606;49.154;9.280;2024-01-16T03:56:24;99181.88;;;-1.41;100.00
13080;BME280;6606;49.154;9.280;2024-01-16T03:59:06;99185.38;;;-1.40;100.00
13080;BME280;6606;49.154;9.280;2024-01-16T04:01:49;99186.34;;;-1.46;100.00
13080;BME280;6606;49.154;9.280;2024-01-16T04:04:31;99187.19;;;-1.47;100.00
13080;BME280;6606;49.154;9.280;2024-01-16T04:07:12;99175.06;;;-1.48;100.00
13080;BME280;6606;49.154;9.280;2024-01-16T04:09:54;99184.59;;;-1.47;100.00
13080;BME280;6606;49.154;9.280;2024-01-16T04:12:36;99181.19;;;-1.52;100.00
13080;BME280;6606;49.154;9.280;2024-01-16T04:15:17;99183.75;;;-1.49;100.00
13080;BME280;6606;49.154;9.280;2024-01-16T04:18:00;99175.88;;;-1.43;100.00
13080;BME280;6606;49.154;9.280;2024-01-16T04:20:42;99172.31;;;-1.39;100.00
13080;BME280;6606;49.154;9.280;2024-01-16T04:23:24;99174.22;;;-1.52;100.00
13080;BME280;6606;49.154;9.280;2024-01-16T04:26:05;99188.09;;;-1.48;100.00
13080;BME280;6606;49.154;9.280;2024-01-16T04:28:48;99191.44;;;-1.41;100.00
13080;BME280;6606;49.154;9.280;2024-01-16T04:31:29;99184.47;;;-1.38;100.00
13080;BME280;6606;49.154;9.280;2024-01-16T04:34:13;99184.47;;;-1.38;100.00
13080;BME280;6606;49.154;9.280;2024-01-16T04:36:54;99184.59;;;-1.47;100.00
13080;BME280;6606;49.154;9.280;2024-01-16T04:39:36;99174.97;;;-1.40;100.00
13080;BME280;6606;49.154;9.280;2024-01-16T04:42:18;99180.16;;;-1.40;100.00
13080;BME280;6606;49.154;9.280;2024-01-16T04:45:00;99184.53;;;-1.44;100.00
13080;BME280;6606;49.154;9.280;2024-01-16T04:47:41;99187.13;;;-1.42;100.00
13080;BME280;6606;49.154;9.280;2024-01-16T04:50:25;99177.56;;;-1.40;100.00
13080;BME280;6606;49.154;9.280;2024-01-16T04:53:12;99181.06;;;-1.43;100.00
13080;BME280;6606;49.154;9.280;2024-01-16T04:55:53;99179.16;;;-1.32;100.00
13080;BME280;6606;49.154;9.280;2024-01-16T04:58:35;99172.31;;;-1.37;100.00
13080;BME280;6606;49.154;9.280;2024-01-16T05:01:17;99171.34;;;-1.33;100.00
13080;BME280;6606;49.154;9.280;2024-01-16T05:03:58;99176.59;;;-1.35;100.00
13080;BME280;6606;49.154;9.280;2024-01-16T05:06:41;99177.47;;;-1.34;100.00
13080;BME280;6606;49.154;9.280;2024-01-16T05:09:23;99177.47;;;-1.36;100.00
13080;BME280;6606;49.154;9.280;2024-01-16T05:12:05;99171.34;;;-1.32;100.00
13080;BME280;6606;49.154;9.280;2024-01-16T05:14:47;99169.66;;;-1.36;100.00
13080;BME280;6606;49.154;9.280;2024-01-16T05:17:28;99172.31;;;-1.39;100.00
13080;BME280;6606;49.154;9.280;2024-01-16T05:20:11;99164.81;;;-1.59;100.00
13080;BME280;6606;49.154;9.280;2024-01-16T05:22:54;99157.75;;;-1.52;100.00
13080;BME280;6606;49.154;9.280;2024-01-16T05:25:36;99158.66;;;-1.53;100.00
13080;BME280;6606;49.154;9.280;2024-01-16T05:28:18;99155.31;;;-1.61;100.00
13080;BME280;6606;49.154;9.280;2024-01-16T05:30:59;99153.81;;;-1.78;100.00
13080;BME280;6606;49.154;9.280;2024-01-16T05:33:41;99154.72;;;-1.83;100.00
13080;BME280;6606;49.154;9.280;2024-01-16T05:36:24;99145.31;;;-1.92;100.00
13080;BME280;6606;49.154;9.280;2024-01-16T05:39:07;99150.66;;;-2.01;100.00
13080;BME280;6606;49.154;9.280;2024-01-16T05:41:49;99156.84;;;-2.11;100.00
13080;BME280;6606;49.154;9.280;2024-01-16T05:44:31;99159.47;;;-2.13;100.00
13080;BME280;6606;49.154;9.280;2024-01-16T05:47:13;99142.19;;;-2.19;100.00
13080;BME280;6606;49.154;9.280;2024-01-16T05:49:57;99144.84;;;-2.23;100.00
13080;BME280;6606;49.154;9.280;2024-01-16T05:52:38;99144.03;;;-2.27;100.00
13080;BME280;6606;49.154;9.280;2024-01-16T05:55:22;99140.81;;;-2.47;100.00
13080;BME280;6606;49.154;9.280;2024-01-16T05:58:04;99136.56;;;-2.54;100.00
13080;BME280;6606;49.154;9.280;2024-01-16T06:00:46;99134.09;;;-2.67;100.00
13080;BME280;6606;49.154;9.280;2024-01-16T06:03:28;99130.75;;;-2.78;100.00
13080;BME280;6606;49.154;9.280;2024-01-16T06:06:09;99141.34;;;-2.96;100.00
13080;BME280;6606;49.154;9.280;2024-01-16T06:08:52;99139.66;;;-3.03;100.00
13080;BME280;6606;49.154;9.280;2024-01-16T06:11:35;99137.13;;;-3.10;100.00
13080;BME280;6606;49.154;9.280;2024-01-16T06:14:18;99133.75;;;-3.21;100.00
13080;BME280;6606;49.154;9.280;2024-01-16T06:17:02;99133.78;;;-3.24;100.00
13080;BME280;6606;49.154;9.280;2024-01-16T06:19:45;99133.84;;;-3.32;100.00
13080;BME280;6606;49.154;9.280;2024-01-16T06:22:27;99128.56;;;-3.24;100.00
13080;BME280;6606;49.154;9.280;2024-01-16T06:25:09;99121.72;;;-3.28;100.00
13080;BME280;6606;49.154;9.280;2024-01-16T06:27:52;99120.75;;;-3.21;100.00
13080;BME280;6606;49.154;9.280;2024-01-16T06:30:34;99129.38;;;-3.16;100.00
13080;BME280;6606;49.154;9.280;2024-01-16T06:33:15;99123.28;;;-3.13;100.00
13080;BME280;6606;49.154;9.280;2024-01-16T06:35:57;99115.66;;;-3.30;100.00
13080;BME280;6606;49.154;9.280;2024-01-16T06:38:39;99114.75;;;-3.26;100.00
13080;BME280;6606;49.154;9.280;2024-01-16T06:41:21;99115.50;;;-3.13;100.00
13080;BME280;6606;49.154;9.280;2024-01-16T06:44:04;99109.47;;;-3.15;100.00
13080;BME280;6606;49.154;9.280;2024-01-16T06:46:45;99111.16;;;-3.10;100.00
13080;BME280;6606;49.154;9.280;2024-01-16T06:49:27;99121.47;;;-3.05;100.00
13080;BME280;6606;49.154;9.280;2024-01-16T06:52:09;99123.16;;;-2.96;100.00
13080;BME280;6606;49.154;9.280;2024-01-16T06:54:50;99118.94;;;-3.13;100.00
13080;BME280;6606;49.154;9.280;2024-01-16T06:57:32;99111.09;;;-3.02;100.00
13080;BME280;6606;49.154;9.280;2024-01-16T07:00:16;99110.09;;;-2.90;100.00
13080;BME280;6606;49.154;9.280;2024-01-16T07:02:58;99112.44;;;-2.69;100.00
13080;BME280;6606;49.154;9.280;2024-01-16T07:05:40;99118.38;;;-2.54;100.00
13080;BME280;6606;49.154;9.280;2024-01-16T07:08:23;99116.50;;;-2.43;100.00
13080;BME280;6606;49.154;9.280;2024-01-16T07:11:04;99119.88;;;-2.35;100.00
13080;BME280;6606;49.154;9.280;2024-01-16T07:13:48;99114.63;;;-2.32;100.00
13080;BME280;6606;49.154;9.280;2024-01-16T07:16:32;99126.59;;;-2.19;100.00
13080;BME280;6606;49.154;9.280;2024-01-16T07:19:13;99125.53;;;-2.05;100.00
13080;BME280;6606;49.154;9.280;2024-01-16T07:21:55;99125.44;;;-1.98;100.00
13080;BME280;6606;49.154;9.280;2024-01-16T07:24:37;99134.91;;;-1.92;100.00
13080;BME280;6606;49.154;9.280;2024-01-16T07:27:19;99128.75;;;-1.86;100.00
13080;BME280;6606;49.154;9.280;2024-01-16T07:30:00;99139.19;;;-1.88;100.00
13080;BME280;6606;49.154;9.280;2024-01-16T07:32:43;99130.41;;;-1.79;100.00
13080;BME280;6606;49.154;9.280;2024-01-16T07:35:25;99137.25;;;-1.72;100.00
13080;BME280;6606;49.154;9.280;2024-01-16T07:38:07;99133.75;;;-1.71;100.00
13080;BME280;6606;49.154;9.280;2024-01-16T07:40:48;99136.44;;;-1.79;100.00
13080;BME280;6606;49.154;9.280;2024-01-16T07:43:31;99142.66;;;-1.87;100.00
13080;BME280;6606;49.154;9.280;2024-01-16T07:46:13;99149.50;;;-1.82;100.00
13080;BME280;6606;49.154;9.280;2024-01-16T07:48:56;99143.19;;;-1.65;100.00
13080;BME280;6606;49.154;9.280;2024-01-16T07:51:37;99138.72;;;-1.56;100.00
13080;BME280;6606;49.154;9.280;2024-01-16T07:54:19;99143.03;;;-1.53;100.00
13080;BME280;6606;49.154;9.280;2024-01-16T07:57:00;99138.69;;;-1.54;100.00
13080;BME280;6606;49.154;9.280;2024-01-16T07:59:42;99127.72;;;-1.75;100.00
13080;BME280;6606;49.154;9.280;2024-01-16T08:02:30;99134.53;;;-1.67;100.00
13080;BME280;6606;49.154;9.280;2024-01-16T08:05:14;99133.72;;;-1.69;100.00
13080;BME280;6606;49.154;9.280;2024-01-16T08:07:56;99138.94;;;-1.69;100.00
13080;BME280;6606;49.154;9.280;2024-01-16T08:10:39;99144.19;;;-1.74;100.00
13080;BME280;6606;49.154;9.280;2024-01-16T08:13:22;99140.44;;;-1.55;100.00
13080;BME280;6606;49.154;9.280;2024-01-16T08:16:04;99140.22;;;-1.41;100.00
13080;BME280;6606;49.154;9.280;2024-01-16T08:18:46;99140.25;;;-1.42;100.00
13080;BME280;6606;49.154;9.280;2024-01-16T08:21:29;99148.00;;;-1.38;100.00
13080;BME280;6606;49.154;9.280;2024-01-16T08:24:11;99140.97;;;-1.33;100.00
13080;BME280;6606;49.154;9.280;2024-01-16T08:26:52;99139.19;;;-1.31;100.00
13080;BME280;6606;49.154;9.280;2024-01-16T08:29:34;99153.06;;;-1.28;100.00
13080;BME280;6606;49.154;9.280;2024-01-16T08:32:16;99153.66;;;-1.13;100.00
13080;BME280;6606;49.154;9.280;2024-01-16T08:34:58;99164.22;;;-1.20;100.00
13080;BME280;6606;49.154;9.280;2024-01-16T08:37:40;99158.75;;;-1.03;100.00
13080;BME280;6606;49.154;9.280;2024-01-16T08:40:22;99157.78;;;-0.98;100.00
13080;BME280;6606;49.154;9.280;2024-01-16T08:43:04;99161.91;;;-0.86;100.00
13080;BME280;6606;49.154;9.280;2024-01-16T08:45:46;99166.00;;;-0.73;100.00
13080;BME280;6606;49.154;9.280;2024-01-16T08:48:28;99176.16;;;-0.56;100.00
13080;BME280;6606;49.154;9.280;2024-01-16T08:51:11;99180.72;;;-0.69;100.00
13080;BME280;6606;49.154;9.280;2024-01-16T08:53:55;99182.88;;;-0.46;100.00
13080;BME280;6606;49.154;9.280;2024-01-16T08:56:37;99177.84;;;-0.55;100.00
13080;BME280;6606;49.154;9.280;2024-01-16T08:59:19;99177.78;;;-0.52;100.00
13080;BME280;6606;49.154;9.280;2024-01-16T09:02:00;99190.56;;;-0.38;100.00
13080;BME280;6606;49.154;9.280;2024-01-16T09:04:43;99183.66;;;-0.40;100.00
13080;BME280;6606;49.154;9.280;2024-01-16T09:07:26;99183.78;;;-0.02;100.00
13080;BME280;6606;49.154;9.280;2024-01-16T09:10:10;99184.16;;;0.22;100.00
13080;BME280;6606;49.154;9.280;2024-01-16T09:12:52;99182.75;;;0.44;100.00
13080;BME280;6606;49.154;9.280;2024-01-16T09:15:33;99192.09;;;0.56;100.00
13080;BME280;6606;49.154;9.280;2024-01-16T09:18:15;99191.38;;;0.87;100.00
13080;BME280;6606;49.154;9.280;2024-01-16T09:20:57;99189.50;;;0.92;100.00
13080;BME280;6606;49.154;9.280;2024-01-16T09:23:39;99189.25;;;0.67;100.00
13080;BME280;6606;49.154;9.280;2024-01-16T09:26:22;99190.59;;;0.83;100.00
13080;BME280;6606;49.154;9.280;2024-01-16T09:29:03;99196.13;;;1.07;100.00
13080;BME280;6606;49.154;9.280;2024-01-16T09:31:45;99200.00;;;0.90;100.00
13080;BME280;6606;49.154;9.280;2024-01-16T09:34:27;99197.25;;;0.97;100.00
13080;BME280;6606;49.154;9.280;2024-01-16T09:37:09;99203.72;;;0.82;100.00
13080;BME280;6606;49.154;9.280;2024-01-16T09:39:52;99211.44;;;0.86;100.00
13080;BME280;6606;49.154;9.280;2024-01-16T09:42:35;99221.38;;;1.08;100.00
13080;BME280;6606;49.154;9.280;2024-01-16T09:45:20;99215.06;;;1.17;100.00
13080;BME280;6606;49.154;9.280;2024-01-16T09:48:03;99219.84;;;1.35;100.00
13080;BME280;6606;49.154;9.280;2024-01-16T09:50:46;99217.25;;;1.33;100.00
13080;BME280;6606;49.154;9.280;2024-01-16T09:53:28;99207.72;;;1.64;100.00
13080;BME280;6606;49.154;9.280;2024-01-16T09:56:13;99200.19;;;1.86;100.00
13080;BME280;6606;49.154;9.280;2024-01-16T09:59:03;99191.53;;;2.13;100.00
13080;BME280;6606;49.154;9.280;2024-01-16T10:01:48;99191.91;;;2.31;100.00
13080;BME280;6606;49.154;9.280;2024-01-16T10:04:30;99185.94;;;2.26;99.56
13080;BME280;6606;49.154;9.280;2024-01-16T10:07:12;99184.72;;;2.65;95.61
13080;BME280;6606;49.154;9.280;2024-01-16T10:09:56;99176.63;;;2.73;91.75
13080;BME280;6606;49.154;9.280;2024-01-16T10:12:38;99174.56;;;2.55;82.74
13080;BME280;6606;49.154;9.280;2024-01-16T10:15:22;99162.97;;;2.34;86.93
13080;BME280;6606;49.154;9.280;2024-01-16T10:18:04;99159.66;;;2.27;87.56
13080;BME280;6606;49.154;9.280;2024-01-16T10:20:46;99149.78;;;2.37;86.31
13080;BME280;6606;49.154;9.280;2024-01-16T10:23:29;99146.16;;;2.11;92.24
13080;BME280;6606;49.154;9.280;2024-01-16T10:26:13;99151.56;;;2.35;92.26
13080;BME280;6606;49.154;9.280;2024-01-16T10:29:03;99152.41;;;2.65;89.40
13080;BME280;6606;49.154;9.280;2024-01-16T10:31:46;99153.97;;;2.42;84.67
13080;BME280;6606;49.154;9.280;2024-01-16T10:34:28;99160.16;;;2.40;89.57
13080;BME280;6606;49.154;9.280;2024-01-16T10:37:11;99156.13;;;2.58;86.30
13080;BME280;6606;49.154;9.280;2024-01-16T10:39:53;99161.03;;;2.69;86.68
13080;BME280;6606;49.154;9.280;2024-01-16T10:42:35;99160.31;;;2.90;85.79
13080;BME280;6606;49.154;9.280;2024-01-16T10:45:18;99165.31;;;3.24;82.63
13080;BME280;6606;49.154;9.280;2024-01-16T10:48:05;99158.47;;;3.45;78.03
13080;BME280;6606;49.154;9.280;2024-01-16T10:50:48;99159.44;;;3.43;77.12
13080;BME280;6606;49.154;9.280;2024-01-16T10:53:33;99162.66;;;3.76;74.19
13080;BME280;6606;49.154;9.280;2024-01-16T10:56:17;99146.66;;;3.82;73.13
13080;BME280;6606;49.154;9.280;2024-01-16T10:59:06;99144.63;;;3.40;74.21
13080;BME280;6606;49.154;9.280;2024-01-16T11:01:54;99148.19;;;3.39;73.63
13080;BME280;6606;49.154;9.280;2024-01-16T11:04:41;99142.34;;;3.56;74.37
13080;BME280;6606;49.154;9.280;2024-01-16T11:07:24;99138.94;;;4.01;70.46
13080;BME280;6606;49.154;9.280;2024-01-16T11:10:07;99131.31;;;3.46;71.44
13080;BME280;6606;49.154;9.280;2024-01-16T11:12:51;99124.72;;;3.60;72.41
13080;BME280;6606;49.154;9.280;2024-01-16T11:15:34;99123.06;;;3.81;74.49
13080;BME280;6606;49.154;9.280;2024-01-16T11:18:19;99115.28;;;3.77;72.66
13080;BME280;6606;49.154;9.280;2024-01-16T11:21:06;99116.53;;;3.67;72.06
13080;BME280;6606;49.154;9.280;2024-01-16T11:23:49;99111.66;;;3.82;68.00
13080;BME280;6606;49.154;9.280;2024-01-16T11:26:32;99108.19;;;4.05;71.04
13080;BME280;6606;49.154;9.280;2024-01-16T11:29:36;99119.25;;;4.13;68.68
13080;BME280;6606;49.154;9.280;2024-01-16T11:32:33;99107.81;;;4.14;66.14
13080;BME280;6606;49.154;9.280;2024-01-16T11:35:31;99102.00;;;4.06;62.20
13080;BME280;6606;49.154;9.280;2024-01-16T11:38:16;99098.00;;;3.72;63.51
13080;BME280;6606;49.154;9.280;2024-01-16T11:40:59;99100.41;;;3.54;65.21
13080;BME280;6606;49.154;9.280;2024-01-16T11:43:41;99091.72;;;3.99;67.06
13080;BME280;6606;49.154;9.280;2024-01-16T11:46:28;99088.00;;;4.27;66.31
13080;BME280;6606;49.154;9.280;2024-01-16T11:49:30;99079.13;;;4.52;63.01
13080;BME280;6606;49.154;9.280;2024-01-16T11:52:12;99082.22;;;4.41;61.71
13080;BME280;6606;49.154;9.280;2024-01-16T11:54:55;99076.06;;;4.62;60.18
13080;BME280;6606;49.154;9.280;2024-01-16T11:57:53;99070.97;;;4.81;57.67
13080;BME280;6606;49.154;9.280;2024-01-16T12:00:44;99067.91;;;4.70;59.37
13080;BME280;6606;49.154;9.280;2024-01-16T12:03:27;99065.34;;;4.25;59.67
13080;BME280;6606;49.154;9.280;2024-01-16T12:06:08;99064.00;;;4.36;59.05
13080;BME280;6606;49.154;9.280;2024-01-16T12:08:51;99052.97;;;4.49;60.73
13080;BME280;6606;49.154;9.280;2024-01-16T12:11:34;99053.50;;;3.91;60.04
13080;BME280;6606;49.154;9.280;2024-01-16T12:14:16;99046.69;;;3.63;62.97
13080;BME280;6606;49.154;9.280;2024-01-16T12:17:08;99045.84;;;3.63;64.51
13080;BME280;6606;49.154;9.280;2024-01-16T12:19:51;99046.59;;;3.88;62.29
13080;BME280;6606;49.154;9.280;2024-01-16T12:22:32;99031.50;;;3.93;62.89
13080;BME280;6606;49.154;9.280;2024-01-16T12:25:18;99025.84;;;3.59;64.17
13080;BME280;6606;49.154;9.280;2024-01-16T12:28:03;99028.63;;;3.54;66.27
13080;BME280;6606;49.154;9.280;2024-01-16T12:30:49;99021.84;;;3.48;64.51
13080;BME280;6606;49.154;9.280;2024-01-16T12:33:31;99015.69;;;3.73;63.35
13080;BME280;6606;49.154;9.280;2024-01-16T12:36:15;99015.91;;;3.67;61.90
13080;BME280;6606;49.154;9.280;2024-01-16T12:38:57;99015.19;;;3.85;62.73
13080;BME280;6606;49.154;9.280;2024-01-16T12:41:41;99004.97;;;3.32;67.07
13080;BME280;6606;49.154;9.280;2024-01-16T12:44:28;99001.56;;;3.05;67.25
13080;BME280;6606;49.154;9.280;2024-01-16T12:47:10;98997.72;;;2.90;68.53
13080;BME280;6606;49.154;9.280;2024-01-16T12:49:52;98999.16;;;2.49;72.43
13080;BME280;6606;49.154;9.280;2024-01-16T12:52:34;98995.97;;;2.65;70.21
13080;BME280;6606;49.154;9.280;2024-01-16T12:55:16;99005.19;;;2.51;75.74
13080;BME280;6606;49.154;9.280;2024-01-16T12:58:16;99000.88;;;2.23;78.26
13080;BME280;6606;49.154;9.280;2024-01-16T13:01:20;98993.09;;;1.93;82.97
13080;BME280;6606;49.154;9.280;2024-01-16T13:04:03;98992.44;;;2.13;85.43
13080;BME280;6606;49.154;9.280;2024-01-16T13:06:45;98986.31;;;2.14;86.35
13080;BME280;6606;49.154;9.280;2024-01-16T13:09:28;98979.06;;;1.96;86.94
13080;BME280;6606;49.154;9.280;2024-01-16T13:12:19;98976.16;;;1.77;91.81
13080;BME280;6606;49.154;9.280;2024-01-16T13:15:02;98973.63;;;1.74;93.47
13080;BME280;6606;49.154;9.280;2024-01-16T13:17:47;98969.88;;;1.83;94.42
13080;BME280;6606;49.154;9.280;2024-01-16T13:20:29;98975.84;;;1.86;91.15
13080;BME280;6606;49.154;9.280;2024-01-16T13:23:12;98968.94;;;1.85;89.74
13080;BME280;6606;49.154;9.280;2024-01-16T13:25:56;98969.56;;;1.92;90.57
13080;BME280;6606;49.154;9.280;2024-01-16T13:28:39;98962.66;;;2.17;86.76
13080;BME280;6606;49.154;9.280;2024-01-16T13:31:21;98951.13;;;2.21;85.69
13080;BME280;6606;49.154;9.280;2024-01-16T13:34:04;98953.25;;;2.37;84.71
13080;BME280;6606;49.154;9.280;2024-01-16T13:36:46;98958.13;;;2.48;83.03
13080;BME280;6606;49.154;9.280;2024-01-16T13:39:30;98955.97;;;2.59;81.03
13080;BME280;6606;49.154;9.280;2024-01-16T13:42:15;98956.94;;;2.56;79.09
13080;BME280;6606;49.154;9.280;2024-01-16T13:44:58;98960.91;;;2.43;81.84
13080;BME280;6606;49.154;9.280;2024-01-16T13:47:40;98960.16;;;2.39;82.52
13080;BME280;6606;49.154;9.280;2024-01-16T13:50:23;98941.97;;;2.35;86.00
13080;BME280;6606;49.154;9.280;2024-01-16T13:53:05;98928.19;;;2.55;80.91
13080;BME280;6606;49.154;9.280;2024-01-16T13:55:47;98927.59;;;2.47;82.53
13080;BME280;6606;49.154;9.280;2024-01-16T13:58:29;98927.25;;;2.56;80.26
13080;BME280;6606;49.154;9.280;2024-01-16T14:01:11;98929.16;;;2.52;81.57
13080;BME280;6606;49.154;9.280;2024-01-16T14:03:53;98921.13;;;2.57;80.11
13080;BME280;6606;49.154;9.280;2024-01-16T14:06:36;98919.94;;;2.40;77.61
13080;BME280;6606;49.154;9.280;2024-01-16T14:09:18;98920.22;;;2.33;78.31
13080;BME280;6606;49.154;9.280;2024-01-16T14:11:59;98930.25;;;2.45;80.39
13080;BME280;6606;49.154;9.280;2024-01-16T14:14:41;98936.63;;;2.38;76.74
13080;BME280;6606;49.154;9.280;2024-01-16T14:17:23;98933.97;;;2.64;78.27
13080;BME280;6606;49.154;9.280;2024-01-16T14:20:07;98935.78;;;2.62;77.57
13080;BME280;6606;49.154;9.280;2024-01-16T14:22:52;98934.59;;;2.96;72.71
13080;BME280;6606;49.154;9.280;2024-01-16T14:25:34;98937.94;;;3.00;73.58
13080;BME280;6606;49.154;9.280;2024-01-16T14:28:16;98930.31;;;2.69;73.47
13080;BME280;6606;49.154;9.280;2024-01-16T14:30:58;98935.25;;;2.78;76.66